Hauptseite
METAR-TAF:

METAR-TAF

Flughäfen :

Bejaia, Algerien

Breite: 36-43N, Länge: 005-04E, Höhe: 2 m

Beobachtung

Neuester Wetterbericht von vor 19 Minuten, um 10:00 UTC
Wind 11 kt aus West/Südwest
Temperatur 11°C
Luftfeuchtigkeit 71%
Luftdruck 1022 hPa
Sichtweite: 8000 m
Leicht bewölkt in der Höhe von 2000 ft
Durchbrochene Bewölkung in der Höhe von 23300 ft

METAR: DAAE 121000Z 25011KT 8000 FEW020 BKN233 11/06 Q1022

Zeit: 11:19 (10:19 UTC)

Prognose

Neuester Wetterbericht von vor 5 Stunden und 19 Minuten, um 05:00 UTC
Gültige Prognose vom 12 um 06 UTC bis 13 um 06 UTC
Wind 6 kt aus Süd
Sichtweite 10 km oder mehr
Leicht bewölkt in der Höhe von 3000 ft
Übergehend zu
vom 12 um 10 UTC bis 12 um 12 UTC
Wind 10 kt aus Nord
Übergehend zu
vom 12 um 17 UTC bis 12 um 19 UTC
Wind 6 kt aus Süd/Südwest

TAF: DAAE 120500Z 1206/1306 18006KT 9999 FEW030 BECMG 1210/1212 01010KT BECMG 1217/1219 20006KT

Wetterbeobachtungen und Prognosen von mehr als 4000 Flughäfen (METAR und TAF Bericht).

Die verfügbaren Stationen werden durch gelbe und rote Markierungen auf der Karte dargestellt.

Führen Sie die Maus auf sie, um den Namen der Station zu sehen.

Darauf klicken, um die Beobachtung von Wetterbeobachtungen und Prognosen zu sehen.

Um die Karte zu ändern : klicken Sie auf den grünen Tasten mit einem schwarzen Kreuz Zum Vergrößern, auf den grünen Button mit einem Gedankenstrich zu verkleinern, oder auf die grünen Pfeile für benachbarte Karten.


METAR-TAF: